createdAt,value
2022-12-07T00:06:35.685Z,100520.75
2022-12-07T00:16:41.163Z,100512.97
2022-12-07T00:26:46.270Z,100486.81
2022-12-07T00:36:52.316Z,100478.88
2022-12-07T00:46:56.705Z,100465.75
2022-12-07T00:57:01.893Z,100470.31
2022-12-07T01:07:05.664Z,100473.41
2022-12-07T01:17:10.787Z,100464.09
2022-12-07T01:27:14.705Z,100429.22
2022-12-07T01:37:20.124Z,100450.34
2022-12-07T01:47:23.796Z,100447.19
2022-12-07T01:57:29.681Z,100455.84
2022-12-07T02:07:35.178Z,100434.72
2022-12-07T02:17:49.170Z,100440.63
2022-12-07T02:28:00.570Z,100420.03
2022-12-07T02:38:14.220Z,100419.63
2022-12-07T02:48:20.904Z,100414.97
2022-12-07T02:58:44.208Z,100412.53
2022-12-07T03:08:58.399Z,100401.75
2022-12-07T03:19:08.884Z,100407.72
2022-12-07T03:29:17.318Z,100401.28
2022-12-07T03:39:28.849Z,100389.31
2022-12-07T03:49:46.379Z,100388.16
2022-12-07T03:59:52.986Z,100380.34
2022-12-07T04:09:56.770Z,100371.78
2022-12-07T04:20:02.233Z,100376.91
2022-12-07T04:30:08.471Z,100383.50
2022-12-07T04:40:15.310Z,100391.34
2022-12-07T04:50:19.160Z,100375.63
2022-12-07T05:00:24.466Z,100370.91
2022-12-07T05:10:28.450Z,100370.25
2022-12-07T05:20:36.644Z,100371.69
2022-12-07T05:30:46.946Z,100372.25
2022-12-07T05:40:51.985Z,100369.78
2022-12-07T05:50:55.726Z,100375.16
2022-12-07T06:01:00.934Z,100371.69
2022-12-07T06:11:22.070Z,100375.16
2022-12-07T06:21:27.687Z,100367.47
2022-12-07T06:31:31.755Z,100371.31
2022-12-07T06:41:36.997Z,100371.91
2022-12-07T06:51:42.155Z,100378.16
2022-12-07T07:01:47.252Z,100384.44
2022-12-07T07:11:51.004Z,100391.94
2022-12-07T07:21:56.095Z,100405.34
2022-12-07T07:32:06.284Z,100396.78
2022-12-07T07:42:11.852Z,100397.75
2022-12-07T07:52:15.571Z,100407.56
2022-12-07T08:02:23.011Z,100403.91
2022-12-07T08:12:26.770Z,100409.88
2022-12-07T08:22:31.934Z,100407.72
2022-12-07T08:32:35.686Z,100407.97
2022-12-07T08:42:41.239Z,100410.09
2022-12-07T08:52:45.726Z,100396.47
2022-12-07T09:02:50.889Z,100407.09
2022-12-07T09:12:54.939Z,100402.53
2022-12-07T09:23:01.378Z,100408.22
2022-12-07T09:33:05.301Z,100410.25
2022-12-07T09:43:15.903Z,100407.63
2022-12-07T09:53:27.696Z,100406.50
2022-12-07T10:03:32.896Z,100389.59
2022-12-07T10:13:40.193Z,100378.75
2022-12-07T10:24:02.669Z,100368.44
2022-12-07T10:34:22.521Z,100361.47
2022-12-07T10:44:29.922Z,100360.81
2022-12-07T10:54:45.998Z,100332.44
2022-12-07T11:05:02.285Z,100328.47
2022-12-07T11:15:16.156Z,100320.47
2022-12-07T11:25:28.927Z,100308.84
2022-12-07T11:35:46.917Z,100284.22
2022-12-07T11:46:02.195Z,100279.91
2022-12-07T11:56:14.607Z,100277.38
2022-12-07T12:06:19.603Z,100265.06
2022-12-07T12:16:48.124Z,100245.75
2022-12-07T12:26:57.982Z,100237.44
2022-12-07T12:37:01.767Z,100223.38
2022-12-07T12:47:43.037Z,100218.06
2022-12-07T12:57:51.589Z,100218.09
2022-12-07T13:08:05.122Z,100217.63
2022-12-07T13:18:29.340Z,100222.41
2022-12-07T13:28:41.172Z,100231.84
2022-12-07T13:38:53.708Z,100220.91
2022-12-07T13:49:00.194Z,100220.50
2022-12-07T13:59:04.670Z,100208.81
2022-12-07T14:09:16.941Z,100211.94
2022-12-07T14:19:51.475Z,100224.50
2022-12-07T14:29:56.485Z,100221.31
2022-12-07T14:40:00.275Z,100218.00
2022-12-07T14:50:06.772Z,100215.25
2022-12-07T15:00:16.630Z,100210.28
2022-12-07T15:10:25.542Z,100216.00
2022-12-07T15:20:29.273Z,100217.50
2022-12-07T15:30:34.569Z,100208.03
2022-12-07T15:40:38.611Z,100189.84
2022-12-07T15:50:43.980Z,100198.44
2022-12-07T16:00:49.094Z,100186.75
2022-12-07T16:10:54.118Z,100175.94
2022-12-07T16:20:57.899Z,100181.41
2022-12-07T16:31:08.768Z,100176.72
2022-12-07T16:41:13.613Z,100168.06
2022-12-07T16:51:21.299Z,100170.84
2022-12-07T17:01:25.688Z,100172.28
2022-12-07T17:11:32.743Z,100155.44
2022-12-07T17:21:36.802Z,100156.38
2022-12-07T17:31:46.421Z,100160.25
2022-12-07T17:42:12.248Z,100151.34
2022-12-07T17:52:35.190Z,100143.06
2022-12-07T18:02:39.073Z,100137.25
2022-12-07T18:12:48.880Z,100143.44
2022-12-07T18:22:55.929Z,100140.56
2022-12-07T18:33:00.905Z,100128.00
2022-12-07T18:43:11.937Z,100124.41
2022-12-07T18:53:16.964Z,100120.16
2022-12-07T19:03:20.725Z,100117.03
2022-12-07T19:13:25.799Z,100103.06
2022-12-07T19:23:29.595Z,100111.28
2022-12-07T19:33:35.113Z,100099.34
2022-12-07T19:43:38.829Z,100100.72
2022-12-07T19:53:43.833Z,100094.38
2022-12-07T20:03:47.590Z,100085.31
2022-12-07T20:13:52.891Z,100078.22
2022-12-07T20:23:56.715Z,100076.16
2022-12-07T20:34:02.540Z,100065.25
2022-12-07T20:44:06.975Z,100059.81
2022-12-07T20:54:12.267Z,100057.28
2022-12-07T21:04:18.107Z,100042.41
2022-12-07T21:14:23.528Z,100046.28
2022-12-07T21:24:27.266Z,100040.31
2022-12-07T21:34:32.324Z,100023.91
2022-12-07T21:44:36.322Z,100022.88
2022-12-07T21:54:42.595Z,100026.41
2022-12-07T22:04:46.322Z,100020.94
2022-12-07T22:15:10.341Z,100018.56
2022-12-07T22:25:15.914Z,100010.34
2022-12-07T22:35:21.040Z,99999.22
2022-12-07T22:45:24.661Z,100006.81
2022-12-07T22:55:29.690Z,100005.69
2022-12-07T23:05:33.418Z,100001.09
2022-12-07T23:15:39.330Z,99977.38
2022-12-07T23:25:43.025Z,99978.91
2022-12-07T23:35:48.024Z,99972.00
2022-12-07T23:45:51.725Z,99966.25
2022-12-07T23:55:56.927Z,99951.22
